Time,TemperatureF,DewpointF,PressureIn,WindDirection,WindDirectionDegrees,WindSpeedMPH,WindSpeedGustMPH,Humidity,HourlyPrecipIn,Conditions,Clouds,dailyrainin,SoftwareType,DateUTC
2013-10-10 00:04:00,64.6,39.7,29.96,West,260,2.0,4.0,40,0.00,,,0.00,meteohub,2013-10-10 06:04:00,
2013-10-10 00:09:00,64.2,39.4,29.96,West,259,3.0,4.0,40,0.00,,,0.00,meteohub,2013-10-10 06:09:00,
2013-10-10 00:14:00,64.0,39.9,29.96,WSW,248,3.0,4.0,41,0.00,,,0.00,meteohub,2013-10-10 06:14:00,
2013-10-10 00:19:00,63.9,39.7,29.96,WSW,247,3.0,5.0,41,0.00,,,0.00,meteohub,2013-10-10 06:19:00,
2013-10-10 00:24:00,63.5,39.4,29.96,WSW,247,1.0,5.0,41,0.00,,,0.00,meteohub,2013-10-10 06:24:00,
2013-10-10 00:30:00,63.5,39.4,29.96,WSW,247,0.0,5.0,41,0.00,,,0.00,meteohub,2013-10-10 06:30:00,
2013-10-10 00:35:00,63.3,39.2,29.96,WSW,247,0.0,4.0,41,0.00,,,0.00,meteohub,2013-10-10 06:35:00,
2013-10-10 00:40:00,63.3,39.9,29.96,WSW,247,0.0,4.0,42,0.00,,,0.00,meteohub,2013-10-10 06:40:00,
2013-10-10 00:45:00,63.3,39.9,29.96,WSW,247,0.0,0.0,42,0.00,,,0.00,meteohub,2013-10-10 06:45:00,
2013-10-10 00:50:00,63.3,39.9,29.96,WSW,247,0.0,0.0,42,0.00,,,0.00,meteohub,2013-10-10 06:50:00,
2013-10-10 00:56:00,63.3,39.9,29.96,WSW,247,0.0,0.0,42,0.00,,,0.00,meteohub,2013-10-10 06:56:00,
2013-10-10 01:02:00,63.3,39.9,29.97,WSW,247,0.0,0.0,42,0.00,,,0.00,meteohub,2013-10-10 07:02:00,
2013-10-10 01:11:00,63.0,40.1,29.97,WSW,247,0.0,0.0,43,0.00,,,0.00,meteohub,2013-10-10 07:11:00,
2013-10-10 01:16:00,62.6,39.7,29.97,WSW,247,1.0,2.0,43,0.00,,,0.00,meteohub,2013-10-10 07:16:00,
2013-10-10 01:22:00,62.1,39.9,29.97,WSW,247,0.0,2.0,44,0.00,,,0.00,meteohub,2013-10-10 07:22:00,
2013-10-10 01:27:00,62.1,39.9,29.97,WSW,247,0.0,2.0,44,0.00,,,0.00,meteohub,2013-10-10 07:27:00,
2013-10-10 01:32:00,62.1,39.9,29.97,WSW,247,2.0,2.0,44,0.00,,,0.00,meteohub,2013-10-10 07:32:00,
2013-10-10 01:37:00,62.1,39.4,29.97,WSW,247,2.0,2.0,43,0.00,,,0.00,meteohub,2013-10-10 07:37:00,
2013-10-10 01:42:00,61.9,39.7,29.97,WSW,247,3.0,3.0,44,0.00,,,0.00,meteohub,2013-10-10 07:42:00,
2013-10-10 01:47:00,61.7,39.6,29.97,WSW,247,1.0,4.0,44,0.00,,,0.00,meteohub,2013-10-10 07:47:00,
2013-10-10 01:52:00,61.9,39.7,29.97,WSW,247,1.0,4.0,44,0.00,,,0.00,meteohub,2013-10-10 07:52:00,
2013-10-10 01:57:00,61.9,39.2,29.97,WSW,247,2.0,4.0,43,0.00,,,0.00,meteohub,2013-10-10 07:57:00,
2013-10-10 02:02:00,62.1,39.4,29.97,WSW,247,0.0,4.0,43,0.00,,,0.00,meteohub,2013-10-10 08:02:00,
2013-10-10 02:07:00,61.9,39.2,29.97,WSW,247,2.0,4.0,43,0.00,,,0.00,meteohub,2013-10-10 08:07:00,
2013-10-10 02:12:00,61.3,39.2,29.97,WSW,246,1.0,5.0,44,0.00,,,0.00,meteohub,2013-10-10 08:12:00,
2013-10-10 02:17:00,61.9,39.7,29.97,WSW,245,2.0,5.0,44,0.00,,,0.00,meteohub,2013-10-10 08:17:00,
2013-10-10 02:22:00,62.1,39.9,29.97,WSW,245,0.0,5.0,44,0.00,,,0.00,meteohub,2013-10-10 08:22:00,
2013-10-10 02:28:00,62.6,40.5,29.97,SW,216,3.0,4.0,44,0.00,,,0.00,meteohub,2013-10-10 08:28:00,
2013-10-10 02:33:00,64.0,41.2,29.97,SSW,197,4.0,6.0,43,0.00,,,0.00,meteohub,2013-10-10 08:33:00,
2013-10-10 02:38:00,64.8,41.7,29.97,SSW,198,2.0,6.0,43,0.00,,,0.00,meteohub,2013-10-10 08:38:00,
2013-10-10 02:44:00,64.9,41.9,29.97,South,189,4.0,6.0,43,0.00,,,0.00,meteohub,2013-10-10 08:44:00,
2013-10-10 02:49:00,64.8,41.7,29.97,SSW,194,5.0,7.0,43,0.00,,,0.00,meteohub,2013-10-10 08:49:00,
2013-10-10 02:54:00,64.8,41.7,29.97,SSW,203,3.0,7.0,43,0.00,,,0.00,meteohub,2013-10-10 08:54:00,
2013-10-10 02:59:00,64.4,41.4,29.97,SSW,205,5.0,7.0,43,0.00,,,0.00,meteohub,2013-10-10 08:59:00,
2013-10-10 03:04:00,64.2,41.9,29.97,SSW,202,7.0,7.0,44,0.00,,,0.00,meteohub,2013-10-10 09:04:00,
2013-10-10 03:09:00,63.9,42.1,29.97,SW,221,4.0,7.0,45,0.00,,,0.00,meteohub,2013-10-10 09:09:00,
2013-10-10 03:14:00,63.0,41.9,29.97,SW,217,6.0,7.0,46,0.00,,,0.00,meteohub,2013-10-10 09:14:00,
2013-10-10 03:20:00,62.8,42.3,29.97,SW,227,5.0,7.0,47,0.00,,,0.00,meteohub,2013-10-10 09:20:00,
2013-10-10 03:25:00,63.0,43.0,29.97,SSW,211,5.0,7.0,48,0.00,,,0.00,meteohub,2013-10-10 09:25:00,
2013-10-10 03:30:00,63.3,43.3,29.96,SW,214,2.0,7.0,48,0.00,,,0.00,meteohub,2013-10-10 09:30:00,
2013-10-10 03:35:00,63.7,43.2,29.97,SW,229,1.0,7.0,47,0.00,,,0.00,meteohub,2013-10-10 09:35:00,
2013-10-10 03:40:00,63.7,43.7,29.96,SW,216,4.0,7.0,48,0.00,,,0.00,meteohub,2013-10-10 09:40:00,
2013-10-10 03:45:00,63.3,43.3,29.96,SSW,209,4.0,7.0,48,0.00,,,0.00,meteohub,2013-10-10 09:45:00,
2013-10-10 03:50:00,63.0,43.5,29.96,SW,218,4.0,7.0,49,0.00,,,0.00,meteohub,2013-10-10 09:50:00,
2013-10-10 03:55:00,62.4,43.0,29.96,SW,218,2.0,7.0,49,0.00,,,0.00,meteohub,2013-10-10 09:55:00,
2013-10-10 04:00:00,61.9,43.0,29.96,SW,218,1.0,6.0,50,0.00,,,0.00,meteohub,2013-10-10 10:00:00,
2013-10-10 04:05:00,61.2,43.0,29.96,SW,219,4.0,6.0,51,0.00,,,0.00,meteohub,2013-10-10 10:05:00,
2013-10-10 04:10:00,61.0,42.8,29.96,SW,219,4.0,6.0,51,0.00,,,0.00,meteohub,2013-10-10 10:10:00,
2013-10-10 04:15:00,60.6,43.0,29.96,SW,219,0.0,6.0,52,0.00,,,0.00,meteohub,2013-10-10 10:15:00,
2013-10-10 04:20:00,60.6,43.0,29.96,SSW,213,5.0,6.0,52,0.00,,,0.00,meteohub,2013-10-10 10:20:00,
2013-10-10 04:25:00,61.0,43.2,29.95,SSW,206,2.0,6.0,52,0.00,,,0.00,meteohub,2013-10-10 10:25:00,
2013-10-10 04:30:00,60.6,43.0,29.95,SSW,206,0.0,6.0,52,0.00,,,0.00,meteohub,2013-10-10 10:30:00,
2013-10-10 04:35:00,60.3,43.0,29.95,SSW,206,0.0,5.0,53,0.00,,,0.00,meteohub,2013-10-10 10:35:00,
2013-10-10 04:40:00,60.1,43.0,29.95,SSW,206,0.0,4.0,53,0.00,,,0.00,meteohub,2013-10-10 10:40:00,
2013-10-10 04:45:00,59.7,43.0,29.95,SSW,206,0.0,0.0,54,0.00,,,0.00,meteohub,2013-10-10 10:45:00,
2013-10-10 04:50:00,59.7,43.0,29.95,SSW,206,0.0,1.0,54,0.00,,,0.00,meteohub,2013-10-10 10:50:00,
2013-10-10 04:55:00,60.3,44.1,29.95,SSW,206,2.0,3.0,55,0.00,,,0.00,meteohub,2013-10-10 10:55:00,
2013-10-10 05:00:00,61.7,45.0,29.95,SSW,194,1.0,4.0,54,0.00,,,0.00,meteohub,2013-10-10 11:00:00,
2013-10-10 05:05:00,61.9,44.1,29.95,SSW,194,0.0,4.0,52,0.00,,,0.00,meteohub,2013-10-10 11:05:00,
2013-10-10 05:11:00,60.8,43.5,29.95,SSW,194,0.0,4.0,53,0.00,,,0.00,meteohub,2013-10-10 11:11:00,
2013-10-10 05:16:00,60.3,44.1,29.95,SSW,194,0.0,3.0,55,0.00,,,0.00,meteohub,2013-10-10 11:16:00,
2013-10-10 05:21:00,60.1,43.9,29.95,SSW,194,1.0,0.0,55,0.00,,,0.00,meteohub,2013-10-10 11:21:00,
2013-10-10 05:26:00,61.2,44.8,29.95,SSW,194,0.0,3.0,55,0.00,,,0.00,meteohub,2013-10-10 11:26:00,
2013-10-10 05:31:00,62.1,45.1,29.95,South,181,4.0,6.0,54,0.00,,,0.00,meteohub,2013-10-10 11:31:00,
2013-10-10 05:36:00,63.1,45.7,29.95,South,179,5.0,7.0,53,0.00,,,0.00,meteohub,2013-10-10 11:36:00,
2013-10-10 05:41:00,63.9,45.9,29.95,SSE,161,4.0,10.0,52,0.00,,,0.00,meteohub,2013-10-10 11:41:00,
2013-10-10 05:46:00,64.0,46.0,29.95,South,174,8.0,10.0,52,0.00,,,0.00,meteohub,2013-10-10 11:46:00,
2013-10-10 05:51:00,64.2,45.7,29.95,South,181,6.0,9.0,51,0.00,,,0.00,meteohub,2013-10-10 11:51:00,
2013-10-10 05:56:00,64.4,45.9,29.95,South,180,7.0,9.0,51,0.00,,,0.00,meteohub,2013-10-10 11:56:00,
2013-10-10 06:01:00,64.6,46.0,29.95,South,190,7.0,10.0,51,0.00,,,0.00,meteohub,2013-10-10 12:01:00,
2013-10-10 06:06:00,64.6,46.0,29.95,South,190,9.0,10.0,51,0.00,,,0.00,meteohub,2013-10-10 12:06:00,
2013-10-10 06:11:00,64.4,45.9,29.95,South,184,4.0,11.0,51,0.00,,,0.00,meteohub,2013-10-10 12:11:00,
2013-10-10 06:16:00,64.2,46.2,29.95,SSW,205,5.0,11.0,52,0.00,,,0.00,meteohub,2013-10-10 12:16:00,
2013-10-10 06:21:00,64.0,46.0,29.95,SSW,197,6.0,10.0,52,0.00,,,0.00,meteohub,2013-10-10 12:21:00,
2013-10-10 06:26:00,63.9,45.9,29.95,SSW,195,2.0,8.0,52,0.00,,,0.00,meteohub,2013-10-10 12:26:00,
2013-10-10 06:31:00,63.3,45.9,29.95,SSW,194,6.0,8.0,53,0.00,,,0.00,meteohub,2013-10-10 12:31:00,
2013-10-10 06:36:00,63.1,46.2,29.95,South,185,6.0,7.0,54,0.00,,,0.00,meteohub,2013-10-10 12:36:00,
2013-10-10 06:41:00,63.0,46.0,29.96,South,184,6.0,8.0,54,0.00,,,0.00,meteohub,2013-10-10 12:41:00,
2013-10-10 06:46:00,62.8,46.4,29.96,South,184,4.0,8.0,55,0.00,,,0.00,meteohub,2013-10-10 12:46:00,
2013-10-10 06:51:00,62.4,46.0,29.96,South,180,3.0,8.0,55,0.00,,,0.00,meteohub,2013-10-10 12:51:00,
2013-10-10 06:56:00,62.4,46.6,29.96,South,174,6.0,8.0,56,0.00,,,0.00,meteohub,2013-10-10 12:56:00,
2013-10-10 07:01:00,62.4,46.6,29.96,South,177,4.0,8.0,56,0.00,,,0.00,meteohub,2013-10-10 13:01:00,
2013-10-10 07:06:00,62.4,46.6,29.96,South,178,4.0,8.0,56,0.00,,,0.00,meteohub,2013-10-10 13:06:00,
2013-10-10 07:12:00,62.4,46.6,29.96,South,184,5.0,8.0,56,0.00,,,0.00,meteohub,2013-10-10 13:12:00,
2013-10-10 07:17:00,62.6,46.2,29.96,South,187,7.0,8.0,55,0.00,,,0.00,meteohub,2013-10-10 13:17:00,
2013-10-10 07:22:00,62.6,46.2,29.96,South,190,3.0,8.0,55,0.00,,,0.00,meteohub,2013-10-10 13:22:00,
2013-10-10 07:27:00,62.8,46.4,29.96,SSW,192,5.0,9.0,55,0.00,,,0.00,meteohub,2013-10-10 13:27:00,
2013-10-10 07:32:00,62.4,46.0,29.96,South,188,8.0,9.0,55,0.00,,,0.00,meteohub,2013-10-10 13:32:00,
2013-10-10 07:37:00,62.2,46.4,29.97,SSW,193,5.0,9.0,56,0.00,,,0.00,meteohub,2013-10-10 13:37:00,
2013-10-10 07:42:00,62.4,46.0,29.97,South,187,3.0,9.0,55,0.00,,,0.00,meteohub,2013-10-10 13:42:00,
2013-10-10 07:47:00,62.8,46.4,29.97,South,189,4.0,9.0,55,0.00,,,0.00,meteohub,2013-10-10 13:47:00,
2013-10-10 07:52:00,63.5,46.6,29.97,South,169,3.0,8.0,54,0.00,,,0.00,meteohub,2013-10-10 13:52:00,
2013-10-10 07:57:00,64.4,46.4,29.97,South,174,4.0,8.0,52,0.00,,,0.00,meteohub,2013-10-10 13:57:00,
2013-10-10 08:02:00,64.9,46.4,29.97,South,172,7.0,9.0,51,0.00,,,0.00,meteohub,2013-10-10 14:02:00,
2013-10-10 08:07:00,65.7,46.6,29.97,South,169,7.0,9.0,50,0.00,,,0.00,meteohub,2013-10-10 14:07:00,
2013-10-10 08:12:00,66.2,46.9,29.97,SSE,164,6.0,9.0,50,0.00,,,0.00,meteohub,2013-10-10 14:12:00,
2013-10-10 08:17:00,66.9,47.1,29.97,South,175,6.0,9.0,49,0.00,,,0.00,meteohub,2013-10-10 14:17:00,
2013-10-10 08:22:00,67.6,47.3,29.97,South,173,8.0,12.0,48,0.00,,,0.00,meteohub,2013-10-10 14:22:00,
2013-10-10 08:27:00,68.2,47.1,29.97,SSE,153,4.0,12.0,47,0.00,,,0.00,meteohub,2013-10-10 14:27:00,
2013-10-10 08:32:00,68.5,46.9,29.97,South,169,8.0,12.0,46,0.00,,,0.00,meteohub,2013-10-10 14:32:00,
2013-10-10 08:37:00,68.7,46.6,29.97,South,182,9.0,13.0,45,0.00,,,0.00,meteohub,2013-10-10 14:37:00,
2013-10-10 08:42:00,69.1,46.8,29.97,SSE,155,4.0,14.0,45,0.00,,,0.00,meteohub,2013-10-10 14:42:00,
2013-10-10 08:48:00,69.3,46.9,29.97,South,172,6.0,14.0,45,0.00,,,0.00,meteohub,2013-10-10 14:48:00,
2013-10-10 08:53:00,69.4,46.6,29.97,South,179,6.0,14.0,44,0.00,,,0.00,meteohub,2013-10-10 14:53:00,
2013-10-10 08:58:00,70.0,47.1,29.98,South,188,7.0,11.0,44,0.00,,,0.00,meteohub,2013-10-10 14:58:00,
2013-10-10 09:03:00,70.3,46.2,29.98,SSW,204,7.0,11.0,42,0.00,,,0.00,meteohub,2013-10-10 15:03:00,
2013-10-10 09:08:00,70.7,45.9,29.98,SSW,202,5.0,14.0,41,0.00,,,0.00,meteohub,2013-10-10 15:08:00,
2013-10-10 09:13:00,71.2,46.4,29.98,South,182,9.0,14.0,41,0.00,,,0.00,meteohub,2013-10-10 15:13:00,
2013-10-10 09:18:00,71.8,45.5,29.98,South,188,12.0,14.0,39,0.00,,,0.00,meteohub,2013-10-10 15:18:00,
2013-10-10 09:23:00,72.1,45.9,29.98,South,190,13.0,16.0,39,0.00,,,0.00,meteohub,2013-10-10 15:23:00,
2013-10-10 09:28:00,72.3,46.0,29.98,SSW,196,7.0,16.0,39,0.00,,,0.00,meteohub,2013-10-10 15:28:00,
2013-10-10 09:33:00,73.2,46.0,29.98,SSW,200,7.0,16.0,38,0.00,,,0.00,meteohub,2013-10-10 15:33:00,
2013-10-10 09:38:00,73.4,45.5,29.98,South,186,9.0,16.0,37,0.00,,,0.00,meteohub,2013-10-10 15:38:00,
2013-10-10 09:43:00,73.8,45.1,29.98,SSW,205,13.0,17.0,36,0.00,,,0.00,meteohub,2013-10-10 15:43:00,
2013-10-10 09:48:00,74.3,45.7,29.98,SSW,195,8.0,22.0,36,0.00,,,0.00,meteohub,2013-10-10 15:48:00,
2013-10-10 09:53:00,74.8,45.3,29.98,SSW,199,15.0,22.0,35,0.00,,,0.00,meteohub,2013-10-10 15:53:00,
2013-10-10 09:58:00,75.4,45.1,29.98,South,190,14.0,22.0,34,0.00,,,0.00,meteohub,2013-10-10 15:58:00,
2013-10-10 10:03:00,75.9,43.9,29.98,South,189,14.0,20.0,32,0.00,,,0.00,meteohub,2013-10-10 16:03:00,
2013-10-10 10:08:00,76.3,43.3,29.97,SSW,192,13.0,20.0,31,0.00,,,0.00,meteohub,2013-10-10 16:08:00,
2013-10-10 10:13:00,76.6,42.1,29.97,SSW,198,9.0,22.0,29,0.00,,,0.00,meteohub,2013-10-10 16:13:00,
2013-10-10 10:18:00,77.4,41.7,29.97,SSW,204,12.0,22.0,28,0.00,,,0.00,meteohub,2013-10-10 16:18:00,
2013-10-10 10:24:00,77.7,41.0,29.97,SSW,211,11.0,24.0,27,0.00,,,0.00,meteohub,2013-10-10 16:24:00,
2013-10-10 10:29:00,77.7,41.0,29.97,South,184,13.0,27.0,27,0.00,,,0.00,meteohub,2013-10-10 16:29:00,
2013-10-10 10:34:00,77.7,41.0,29.97,South,189,16.0,28.0,27,0.00,,,0.00,meteohub,2013-10-10 16:34:00,
2013-10-10 10:39:00,78.3,41.5,29.97,SSW,212,11.0,28.0,27,0.00,,,0.00,meteohub,2013-10-10 16:39:00,
2013-10-10 10:44:00,78.4,41.7,29.97,SSW,197,18.0,28.0,27,0.00,,,0.00,meteohub,2013-10-10 16:44:00,
2013-10-10 10:49:00,78.4,40.6,29.97,South,189,24.0,30.0,26,0.00,,,0.00,meteohub,2013-10-10 16:49:00,
2013-10-10 10:54:00,78.4,38.7,29.97,SSW,202,12.0,30.0,24,0.00,,,0.00,meteohub,2013-10-10 16:54:00,
2013-10-10 10:59:00,78.4,39.7,29.97,SSW,208,15.0,30.0,25,0.00,,,0.00,meteohub,2013-10-10 16:59:00,
2013-10-10 11:04:00,78.8,39.9,29.97,SSW,207,15.0,28.0,25,0.00,,,0.00,meteohub,2013-10-10 17:04:00,
2013-10-10 11:09:00,79.5,40.6,29.97,SSW,205,18.0,28.0,25,0.00,,,0.00,meteohub,2013-10-10 17:09:00,
2013-10-10 11:14:00,79.3,39.4,29.97,South,189,10.0,28.0,24,0.00,,,0.00,meteohub,2013-10-10 17:14:00,
2013-10-10 11:19:00,79.3,39.4,29.97,SW,217,16.0,27.0,24,0.00,,,0.00,meteohub,2013-10-10 17:19:00,
2013-10-10 11:24:00,79.5,39.6,29.97,SSW,200,20.0,27.0,24,0.00,,,0.00,meteohub,2013-10-10 17:24:00,
2013-10-10 11:29:00,79.3,39.4,29.97,SW,232,12.0,27.0,24,0.00,,,0.00,meteohub,2013-10-10 17:29:00,
2013-10-10 11:34:00,79.7,39.7,29.96,SW,221,13.0,27.0,24,0.00,,,0.00,meteohub,2013-10-10 17:34:00,
2013-10-10 11:39:00,80.1,40.1,29.97,SSW,202,12.0,28.0,24,0.00,,,0.00,meteohub,2013-10-10 17:39:00,
2013-10-10 11:44:00,79.7,39.7,29.97,SSW,202,17.0,28.0,24,0.00,,,0.00,meteohub,2013-10-10 17:44:00,
2013-10-10 11:49:00,79.5,39.6,29.96,South,190,18.0,26.0,24,0.00,,,0.00,meteohub,2013-10-10 17:49:00,
2013-10-10 11:54:00,79.9,39.9,29.96,SSW,200,22.0,31.0,24,0.00,,,0.00,meteohub,2013-10-10 17:54:00,
2013-10-10 11:59:00,80.6,38.3,29.96,SSW,209,13.0,31.0,22,0.00,,,0.00,meteohub,2013-10-10 17:59:00,
2013-10-10 12:04:00,80.6,37.0,29.97,WSW,246,17.0,31.0,21,0.00,,,0.00,meteohub,2013-10-10 18:04:00,
2013-10-10 12:09:00,80.8,38.5,29.96,SSW,202,12.0,31.0,22,0.00,,,0.00,meteohub,2013-10-10 18:09:00,
2013-10-10 12:15:00,81.1,37.6,29.96,SW,214,14.0,29.0,21,0.00,,,0.00,meteohub,2013-10-10 18:15:00,
2013-10-10 12:20:00,81.1,38.7,29.96,South,190,11.0,32.0,22,0.00,,,0.00,meteohub,2013-10-10 18:20:00,
2013-10-10 12:25:00,81.3,38.8,29.96,South,182,13.0,32.0,22,0.00,,,0.00,meteohub,2013-10-10 18:25:00,
2013-10-10 12:30:00,80.8,39.6,29.95,SW,228,7.0,32.0,23,0.00,,,0.00,meteohub,2013-10-10 18:30:00,
2013-10-10 12:35:00,81.3,38.8,29.95,SSW,205,10.0,25.0,22,0.00,,,0.00,meteohub,2013-10-10 18:35:00,
2013-10-10 12:40:00,81.5,39.0,29.95,SSW,211,11.0,30.0,22,0.00,,,0.00,meteohub,2013-10-10 18:40:00,
2013-10-10 12:45:00,81.1,38.7,29.95,South,188,18.0,30.0,22,0.00,,,0.00,meteohub,2013-10-10 18:45:00,
2013-10-10 12:50:00,81.0,38.5,29.94,South,175,16.0,30.0,22,0.00,,,0.00,meteohub,2013-10-10 18:50:00,
2013-10-10 12:55:00,81.0,38.5,29.94,SW,215,14.0,28.0,22,0.00,,,0.00,meteohub,2013-10-10 18:55:00,
2013-10-10 13:00:00,81.1,37.6,29.94,SW,215,10.0,31.0,21,0.00,,,0.00,meteohub,2013-10-10 19:00:00,
2013-10-10 13:05:00,80.2,37.9,29.94,WSW,240,17.0,31.0,22,0.00,,,0.00,meteohub,2013-10-10 19:05:00,
2013-10-10 13:10:00,81.0,37.4,29.94,SW,219,11.0,26.0,21,0.00,,,0.00,meteohub,2013-10-10 19:10:00,
2013-10-10 13:15:00,81.7,37.9,29.94,SW,219,21.0,26.0,21,0.00,,,0.00,meteohub,2013-10-10 19:15:00,
2013-10-10 13:20:00,82.0,38.3,29.93,SSW,209,7.0,26.0,21,0.00,,,0.00,meteohub,2013-10-10 19:20:00,
2013-10-10 13:25:00,82.8,37.6,29.93,SSW,201,9.0,26.0,20,0.00,,,0.00,meteohub,2013-10-10 19:25:00,
2013-10-10 13:30:00,82.6,37.4,29.93,SSW,202,12.0,26.0,20,0.00,,,0.00,meteohub,2013-10-10 19:30:00,
2013-10-10 13:35:00,82.9,36.5,29.92,SSW,195,21.0,27.0,19,0.00,,,0.00,meteohub,2013-10-10 19:35:00,
2013-10-10 13:40:00,82.0,35.8,29.92,South,185,9.0,28.0,19,0.00,,,0.00,meteohub,2013-10-10 19:40:00,
2013-10-10 13:45:00,82.8,36.3,29.92,SSW,208,14.0,28.0,19,0.00,,,0.00,meteohub,2013-10-10 19:45:00,
2013-10-10 13:50:00,82.8,36.3,29.91,SSW,211,16.0,28.0,19,0.00,,,0.00,meteohub,2013-10-10 19:50:00,
2013-10-10 13:55:00,82.6,36.1,29.91,South,184,22.0,27.0,19,0.00,,,0.00,meteohub,2013-10-10 19:55:00,
2013-10-10 14:00:00,82.9,35.1,29.91,SW,232,17.0,23.0,18,0.00,,,0.00,meteohub,2013-10-10 20:00:00,
2013-10-10 14:06:00,83.1,35.2,29.91,SSW,202,13.0,27.0,18,0.00,,,0.00,meteohub,2013-10-10 20:06:00,
2013-10-10 14:11:00,83.8,35.8,29.91,SSW,208,9.0,27.0,18,0.00,,,0.00,meteohub,2013-10-10 20:11:00,
2013-10-10 14:16:00,84.2,34.7,29.90,SSW,210,13.0,27.0,17,0.00,,,0.00,meteohub,2013-10-10 20:16:00,
2013-10-10 14:21:00,84.2,34.7,29.90,SW,221,12.0,26.0,17,0.00,,,0.00,meteohub,2013-10-10 20:21:00,
2013-10-10 14:26:00,83.7,34.2,29.90,SSW,203,9.0,26.0,17,0.00,,,0.00,meteohub,2013-10-10 20:26:00,
2013-10-10 14:31:00,83.8,34.3,29.89,SW,230,16.0,29.0,17,0.00,,,0.00,meteohub,2013-10-10 20:31:00,
2013-10-10 14:36:00,83.7,34.2,29.89,SSW,208,11.0,29.0,17,0.00,,,0.00,meteohub,2013-10-10 20:36:00,
2013-10-10 14:41:00,83.7,34.2,29.88,SSW,202,13.0,29.0,17,0.00,,,0.00,meteohub,2013-10-10 20:41:00,
2013-10-10 14:42:00,83.7,34.2,29.88,SSW,201,14.0,29.0,17,0.00,,,0.00,meteohub,2013-10-10 20:42:00,
2013-10-10 14:48:00,83.8,34.3,29.88,SSW,212,11.0,30.0,17,0.00,,,0.00,meteohub,2013-10-10 20:48:00,
2013-10-10 14:53:00,83.7,34.2,29.88,WSW,242,5.0,30.0,17,0.00,,,0.00,meteohub,2013-10-10 20:53:00,
2013-10-10 14:58:00,83.7,35.6,29.88,SW,236,14.0,30.0,18,0.00,,,0.00,meteohub,2013-10-10 20:58:00,
2013-10-10 15:03:00,83.1,35.2,29.88,WSW,250,12.0,23.0,18,0.00,,,0.00,meteohub,2013-10-10 21:03:00,
2013-10-10 15:09:00,83.8,35.8,29.88,SW,221,10.0,25.0,18,0.00,,,0.00,meteohub,2013-10-10 21:09:00,
2013-10-10 15:14:00,83.8,35.8,29.88,SW,236,12.0,28.0,18,0.00,,,0.00,meteohub,2013-10-10 21:14:00,
2013-10-10 15:19:00,83.7,35.6,29.88,SW,220,8.0,28.0,18,0.00,,,0.00,meteohub,2013-10-10 21:19:00,
2013-10-10 15:24:00,83.7,35.6,29.89,WSW,242,16.0,29.0,18,0.00,,,0.00,meteohub,2013-10-10 21:24:00,
2013-10-10 15:29:00,83.7,35.6,29.89,WSW,248,11.0,29.0,18,0.00,,,0.00,meteohub,2013-10-10 21:29:00,
2013-10-10 15:34:00,83.1,35.2,29.89,WSW,246,22.0,29.0,18,0.00,,,0.00,meteohub,2013-10-10 21:34:00,
2013-10-10 15:39:00,82.9,36.5,29.89,SW,225,13.0,28.0,19,0.00,,,0.00,meteohub,2013-10-10 21:39:00,
2013-10-10 15:44:00,82.9,35.1,29.89,WSW,245,13.0,30.0,18,0.00,,,0.00,meteohub,2013-10-10 21:44:00,
2013-10-10 15:49:00,82.8,34.9,29.89,WSW,247,14.0,30.0,18,0.00,,,0.00,meteohub,2013-10-10 21:49:00,
2013-10-10 15:54:00,82.8,36.3,29.89,SW,228,14.0,30.0,19,0.00,,,0.00,meteohub,2013-10-10 21:54:00,
2013-10-10 15:59:00,82.8,34.9,29.89,WSW,253,14.0,27.0,18,0.00,,,0.00,meteohub,2013-10-10 21:59:00,
2013-10-10 16:04:00,82.6,34.7,29.89,SW,232,11.0,27.0,18,0.00,,,0.00,meteohub,2013-10-10 22:04:00,
2013-10-10 16:10:00,82.4,34.7,29.89,SW,225,27.0,29.0,18,0.00,,,0.00,meteohub,2013-10-10 22:10:00,
2013-10-10 16:15:00,82.0,35.8,29.89,WSW,254,19.0,29.0,19,0.00,,,0.00,meteohub,2013-10-10 22:15:00,
2013-10-10 16:20:00,82.0,35.8,29.89,WSW,248,13.0,29.0,19,0.00,,,0.00,meteohub,2013-10-10 22:20:00,
2013-10-10 16:25:00,82.0,35.8,29.89,SSW,212,23.0,29.0,19,0.00,,,0.00,meteohub,2013-10-10 22:25:00,
2013-10-10 16:30:00,81.9,35.6,29.89,WSW,243,24.0,29.0,19,0.00,,,0.00,meteohub,2013-10-10 22:30:00,
2013-10-10 16:35:00,81.9,35.6,29.89,WSW,248,26.0,33.0,19,0.00,,,0.00,meteohub,2013-10-10 22:35:00,
2013-10-10 16:40:00,81.3,35.1,29.90,WSW,248,16.0,37.0,19,0.00,,,0.00,meteohub,2013-10-10 22:40:00,
2013-10-10 16:45:00,81.0,36.1,29.89,West,279,19.0,37.0,20,0.00,,,0.00,meteohub,2013-10-10 22:45:00,
2013-10-10 16:50:00,81.1,35.1,29.89,West,278,12.0,37.0,19,0.00,,,0.00,meteohub,2013-10-10 22:50:00,
2013-10-10 16:55:00,80.8,34.7,29.89,WSW,248,25.0,32.0,19,0.00,,,0.00,meteohub,2013-10-10 22:55:00,
2013-10-10 17:00:00,80.4,35.6,29.89,WSW,248,25.0,32.0,20,0.00,,,0.00,meteohub,2013-10-10 23:00:00,
2013-10-10 17:05:00,80.1,35.4,29.89,WSW,250,23.0,32.0,20,0.00,,,0.00,meteohub,2013-10-10 23:05:00,
2013-10-10 17:10:00,79.9,35.2,29.89,WSW,240,10.0,30.0,20,0.00,,,0.00,meteohub,2013-10-10 23:10:00,
2013-10-10 17:15:00,79.5,36.1,29.88,SW,228,22.0,30.0,21,0.00,,,0.00,meteohub,2013-10-10 23:15:00,
2013-10-10 17:20:00,79.2,35.8,29.88,WSW,242,12.0,30.0,21,0.00,,,0.00,meteohub,2013-10-10 23:20:00,
2013-10-10 17:25:00,79.3,37.2,29.88,WSW,238,19.0,28.0,22,0.00,,,0.00,meteohub,2013-10-10 23:25:00,
2013-10-10 17:30:00,79.3,37.2,29.88,WNW,283,11.0,32.0,22,0.00,,,0.00,meteohub,2013-10-10 23:30:00,
2013-10-10 17:35:00,79.2,37.0,29.89,West,261,19.0,32.0,22,0.00,,,0.00,meteohub,2013-10-10 23:35:00,
2013-10-10 17:41:00,79.2,37.0,29.89,WSW,250,22.0,26.0,22,0.00,,,0.00,meteohub,2013-10-10 23:41:00,
2013-10-10 17:46:00,79.0,36.9,29.89,West,267,11.0,24.0,22,0.00,,,0.00,meteohub,2013-10-10 23:46:00,
2013-10-10 17:51:00,79.0,36.9,29.89,SW,226,23.0,26.0,22,0.00,,,0.00,meteohub,2013-10-10 23:51:00,
2013-10-10 17:56:00,78.8,36.7,29.89,WSW,237,20.0,28.0,22,0.00,,,0.00,meteohub,2013-10-10 23:56:00,
2013-10-10 18:01:00,78.6,36.7,29.89,WSW,251,24.0,28.0,22,0.00,,,0.00,meteohub,2013-10-11 00:01:00,
2013-10-10 18:06:00,78.4,36.5,29.89,West,263,17.0,30.0,22,0.00,,,0.00,meteohub,2013-10-11 00:06:00,
2013-10-10 18:11:00,78.3,37.4,29.89,West,271,13.0,30.0,23,0.00,,,0.00,meteohub,2013-10-11 00:11:00,
2013-10-10 18:16:00,78.1,38.3,29.90,WSW,243,13.0,30.0,24,0.00,,,0.00,meteohub,2013-10-11 00:16:00,
2013-10-10 18:21:00,77.7,37.0,29.90,WSW,242,12.0,28.0,23,0.00,,,0.00,meteohub,2013-10-11 00:21:00,
2013-10-10 18:26:00,77.5,36.9,29.90,West,264,11.0,25.0,23,0.00,,,0.00,meteohub,2013-10-11 00:26:00,
2013-10-10 18:31:00,77.4,37.8,29.90,West,262,9.0,25.0,24,0.00,,,0.00,meteohub,2013-10-11 00:31:00,
2013-10-10 18:36:00,77.0,37.4,29.90,West,265,16.0,25.0,24,0.00,,,0.00,meteohub,2013-10-11 00:36:00,
2013-10-10 18:41:00,76.8,37.2,29.90,WSW,246,14.0,27.0,24,0.00,,,0.00,meteohub,2013-10-11 00:41:00,
2013-10-10 18:46:00,76.6,37.2,29.91,WSW,254,11.0,27.0,24,0.00,,,0.00,meteohub,2013-10-11 00:46:00,
2013-10-10 18:51:00,76.5,37.0,29.91,WSW,257,12.0,27.0,24,0.00,,,0.00,meteohub,2013-10-11 00:51:00,
2013-10-10 18:57:00,75.9,37.6,29.92,West,265,7.0,26.0,25,0.00,,,0.00,meteohub,2013-10-11 00:57:00,
2013-10-10 19:02:00,75.7,37.4,29.92,West,259,13.0,22.0,25,0.00,,,0.00,meteohub,2013-10-11 01:02:00,
2013-10-10 19:07:00,75.7,37.4,29.91,WSW,239,10.0,23.0,25,0.00,,,0.00,meteohub,2013-10-11 01:07:00,
2013-10-10 19:12:00,75.6,38.3,29.92,WSW,246,8.0,23.0,26,0.00,,,0.00,meteohub,2013-10-11 01:12:00,
2013-10-10 19:17:00,75.2,37.9,29.92,WSW,245,9.0,23.0,26,0.00,,,0.00,meteohub,2013-10-11 01:17:00,
2013-10-10 19:22:00,74.8,38.7,29.92,WSW,248,8.0,17.0,27,0.00,,,0.00,meteohub,2013-10-11 01:22:00,
2013-10-10 19:27:00,74.8,38.7,29.92,SSW,213,17.0,17.0,27,0.00,,,0.00,meteohub,2013-10-11 01:27:00,
2013-10-10 19:32:00,74.8,38.7,29.92,SW,232,13.0,21.0,27,0.00,,,0.00,meteohub,2013-10-11 01:32:00,
2013-10-10 19:37:00,74.8,38.7,29.92,SW,231,14.0,22.0,27,0.00,,,0.00,meteohub,2013-10-11 01:37:00,
2013-10-10 19:42:00,74.7,38.5,29.92,WSW,244,18.0,22.0,27,0.00,,,0.00,meteohub,2013-10-11 01:42:00,
2013-10-10 19:47:00,74.7,38.5,29.92,SW,229,18.0,22.0,27,0.00,,,0.00,meteohub,2013-10-11 01:47:00,
2013-10-10 19:52:00,74.5,38.3,29.92,WSW,241,13.0,21.0,27,0.00,,,0.00,meteohub,2013-10-11 01:52:00,
2013-10-10 19:57:00,74.5,38.3,29.92,WSW,238,12.0,21.0,27,0.00,,,0.00,meteohub,2013-10-11 01:57:00,
2013-10-10 20:02:00,74.1,37.9,29.93,WSW,248,9.0,20.0,27,0.00,,,0.00,meteohub,2013-10-11 02:02:00,
2013-10-10 20:07:00,74.1,37.9,29.93,WSW,242,14.0,20.0,27,0.00,,,0.00,meteohub,2013-10-11 02:07:00,
2013-10-10 20:12:00,74.1,37.9,29.94,WSW,253,10.0,20.0,27,0.00,,,0.00,meteohub,2013-10-11 02:12:00,
2013-10-10 20:17:00,73.9,37.8,29.95,NW,312,8.0,18.0,27,0.00,,,0.00,meteohub,2013-10-11 02:17:00,
2013-10-10 20:23:00,72.9,34.0,29.96,NW,321,12.0,18.0,24,0.00,,,0.00,meteohub,2013-10-11 02:23:00,
2013-10-10 20:28:00,71.8,34.0,29.96,NW,320,10.0,22.0,25,0.00,,,0.00,meteohub,2013-10-11 02:28:00,
2013-10-10 20:33:00,70.7,34.2,29.96,NW,317,8.0,22.0,26,0.00,,,0.00,meteohub,2013-10-11 02:33:00,
2013-10-10 20:38:00,70.0,33.4,29.96,NW,323,9.0,22.0,26,0.00,,,0.00,meteohub,2013-10-11 02:38:00,
2013-10-10 20:43:00,69.3,33.8,29.96,WNW,286,9.0,21.0,27,0.00,,,0.00,meteohub,2013-10-11 02:43:00,
2013-10-10 20:48:00,68.7,33.4,29.96,NW,317,5.0,16.0,27,0.00,,,0.00,meteohub,2013-10-11 02:48:00,
2013-10-10 20:53:00,68.4,33.1,29.96,WNW,302,13.0,15.0,27,0.00,,,0.00,meteohub,2013-10-11 02:53:00,
2013-10-10 20:58:00,68.2,33.8,29.97,NW,311,10.0,17.0,28,0.00,,,0.00,meteohub,2013-10-11 02:58:00,
2013-10-10 21:03:00,67.8,33.4,29.97,WNW,302,13.0,18.0,28,0.00,,,0.00,meteohub,2013-10-11 03:03:00,
2013-10-10 21:08:00,67.6,33.4,29.97,NW,309,11.0,19.0,28,0.00,,,0.00,meteohub,2013-10-11 03:08:00,
2013-10-10 21:13:00,67.5,33.3,29.98,NW,317,11.0,20.0,28,0.00,,,0.00,meteohub,2013-10-11 03:13:00,
2013-10-10 21:18:00,67.3,34.0,29.98,NNW,339,9.0,20.0,29,0.00,,,0.00,meteohub,2013-10-11 03:18:00,
2013-10-10 21:23:00,66.9,33.6,29.98,NW,313,4.0,20.0,29,0.00,,,0.00,meteohub,2013-10-11 03:23:00,
2013-10-10 21:28:00,66.7,34.3,29.99,WNW,298,6.0,18.0,30,0.00,,,0.00,meteohub,2013-10-11 03:28:00,
2013-10-10 21:34:00,66.4,34.0,29.99,NW,323,10.0,18.0,30,0.00,,,0.00,meteohub,2013-10-11 03:34:00,
2013-10-10 21:39:00,66.2,33.8,29.99,NW,319,4.0,18.0,30,0.00,,,0.00,meteohub,2013-10-11 03:39:00,
2013-10-10 21:44:00,65.8,33.6,29.99,NW,317,3.0,13.0,30,0.00,,,0.00,meteohub,2013-10-11 03:44:00,
2013-10-10 21:49:00,65.5,34.0,29.99,WNW,298,3.0,12.0,31,0.00,,,0.00,meteohub,2013-10-11 03:49:00,
2013-10-10 21:54:00,65.3,33.8,29.99,WNW,288,9.0,12.0,31,0.00,,,0.00,meteohub,2013-10-11 03:54:00,
2013-10-10 21:59:00,65.1,34.5,29.98,NW,304,13.0,13.0,32,0.00,,,0.00,meteohub,2013-10-11 03:59:00,
2013-10-10 22:01:00,65.1,34.5,29.98,WNW,292,13.0,16.0,32,0.00,,,0.00,meteohub,2013-10-11 04:01:00,
2013-10-10 22:02:00,65.1,34.5,29.98,WNW,290,10.0,16.0,32,0.00,,,0.00,meteohub,2013-10-11 04:02:00,
2013-10-10 22:03:00,65.1,34.5,29.99,NW,309,9.0,16.0,32,0.00,,,0.00,meteohub,2013-10-11 04:03:00,
2013-10-10 22:05:00,65.1,34.5,29.99,WNW,297,12.0,17.0,32,0.00,,,0.00,meteohub,2013-10-11 04:05:00,
2013-10-10 22:10:00,64.9,34.3,29.99,NW,304,7.0,17.0,32,0.00,,,0.00,meteohub,2013-10-11 04:10:00,
2013-10-10 22:13:00,64.9,34.3,29.99,WNW,298,11.0,17.0,32,0.00,,,0.00,meteohub,2013-10-11 04:13:00,
2013-10-10 22:18:00,64.8,35.1,29.99,NW,315,10.0,15.0,33,0.00,,,0.00,meteohub,2013-10-11 04:18:00,
2013-10-10 22:23:00,64.6,34.9,30.00,NNW,331,7.0,15.0,33,0.00,,,0.00,meteohub,2013-10-11 04:23:00,
2013-10-10 22:28:00,64.2,34.5,30.00,NW,317,10.0,14.0,33,0.00,,,0.00,meteohub,2013-10-11 04:28:00,
2013-10-10 22:33:00,64.0,35.1,30.00,NW,304,5.0,14.0,34,0.00,,,0.00,meteohub,2013-10-11 04:33:00,
2013-10-10 22:38:00,63.9,34.9,30.00,NW,323,9.0,12.0,34,0.00,,,0.00,meteohub,2013-10-11 04:38:00,
2013-10-10 22:43:00,63.5,34.7,30.01,NW,323,3.0,12.0,34,0.00,,,0.00,meteohub,2013-10-11 04:43:00,
2013-10-10 22:48:00,63.1,35.1,30.01,NW,324,0.0,10.0,35,0.00,,,0.00,meteohub,2013-10-11 04:48:00,
2013-10-10 22:53:00,62.8,34.7,30.01,NW,324,0.0,10.0,35,0.00,,,0.00,meteohub,2013-10-11 04:53:00,
2013-10-10 22:58:00,62.4,35.1,30.00,NW,324,0.0,7.0,36,0.00,,,0.00,meteohub,2013-10-11 04:58:00,
2013-10-10 23:03:00,62.2,34.9,30.00,NW,315,3.0,4.0,36,0.00,,,0.00,meteohub,2013-10-11 05:03:00,
2013-10-10 23:08:00,62.1,35.4,30.00,WNW,293,5.0,6.0,37,0.00,,,0.00,meteohub,2013-10-11 05:08:00,
2013-10-10 23:14:00,61.9,35.2,30.00,WNW,297,6.0,8.0,37,0.00,,,0.00,meteohub,2013-10-11 05:14:00,
2013-10-10 23:20:00,61.9,35.2,30.00,WNW,288,9.0,10.0,37,0.00,,,0.00,meteohub,2013-10-11 05:20:00,
2013-10-10 23:25:00,62.1,35.4,30.00,WNW,299,5.0,11.0,37,0.00,,,0.00,meteohub,2013-10-11 05:25:00,
2013-10-10 23:30:00,62.2,35.6,30.00,NW,311,2.0,11.0,37,0.00,,,0.00,meteohub,2013-10-11 05:30:00,
2013-10-10 23:35:00,62.1,35.4,30.00,NW,319,6.0,11.0,37,0.00,,,0.00,meteohub,2013-10-11 05:35:00,
2013-10-10 23:40:00,61.9,35.2,30.01,North,5,3.0,11.0,37,0.00,,,0.00,meteohub,2013-10-11 05:40:00,
2013-10-10 23:45:00,60.4,35.4,30.01,ENE,69,1.0,11.0,39,0.00,,,0.00,meteohub,2013-10-11 05:45:00,
2013-10-10 23:50:00,59.0,35.4,30.01,ENE,67,1.0,11.0,41,0.00,,,0.00,meteohub,2013-10-11 05:50:00,
2013-10-10 23:55:00,59.0,36.0,30.01,NE,52,0.0,5.0,42,0.00,,,0.00,meteohub,2013-10-11 05:55:00,